sensor_id;sensor_type;location;lat;lon;timestamp;P1;durP1;ratioP1;P2;durP2;ratioP2
68216;SDS011;55037;52.354;4.992;2023-04-25T00:01:06;12.75;;;3.28;;
68216;SDS011;55037;52.354;4.992;2023-04-25T00:03:35;11.32;;;2.90;;
68216;SDS011;55037;52.354;4.992;2023-04-25T00:06:03;13.82;;;2.90;;
68216;SDS011;55037;52.354;4.992;2023-04-25T00:08:30;20.53;;;2.80;;
68216;SDS011;55037;52.354;4.992;2023-04-25T00:10:58;14.32;;;2.65;;
68216;SDS011;55037;52.354;4.992;2023-04-25T00:13:25;16.83;;;2.90;;
68216;SDS011;55037;52.354;4.992;2023-04-25T00:15:53;14.32;;;2.47;;
68216;SDS011;55037;52.354;4.992;2023-04-25T00:18:20;12.98;;;3.08;;
68216;SDS011;55037;52.354;4.992;2023-04-25T00:20:48;15.63;;;3.33;;
68216;SDS011;55037;52.354;4.992;2023-04-25T00:23:16;18.75;;;2.83;;
68216;SDS011;55037;52.354;4.992;2023-04-25T00:25:47;14.05;;;2.38;;
68216;SDS011;55037;52.354;4.992;2023-04-25T00:28:15;17.10;;;2.47;;
68216;SDS011;55037;52.354;4.992;2023-04-25T00:30:43;16.23;;;3.40;;
68216;SDS011;55037;52.354;4.992;2023-04-25T00:33:10;13.97;;;2.87;;
68216;SDS011;55037;52.354;4.992;2023-04-25T00:35:37;14.40;;;2.55;;
68216;SDS011;55037;52.354;4.992;2023-04-25T00:38:05;15.85;;;2.60;;
68216;SDS011;55037;52.354;4.992;2023-04-25T00:40:32;17.42;;;3.00;;
68216;SDS011;55037;52.354;4.992;2023-04-25T00:42:59;11.65;;;2.45;;
68216;SDS011;55037;52.354;4.992;2023-04-25T00:45:27;13.20;;;2.80;;
68216;SDS011;55037;52.354;4.992;2023-04-25T00:47:59;12.55;;;2.55;;
68216;SDS011;55037;52.354;4.992;2023-04-25T00:50:27;18.35;;;2.58;;
68216;SDS011;55037;52.354;4.992;2023-04-25T00:52:54;14.55;;;3.38;;
68216;SDS011;55037;52.354;4.992;2023-04-25T00:55:21;11.65;;;2.67;;
68216;SDS011;55037;52.354;4.992;2023-04-25T00:57:49;9.50;;;2.33;;
68216;SDS011;55037;52.354;4.992;2023-04-25T01:00:17;12.77;;;3.15;;
68216;SDS011;55037;52.354;4.992;2023-04-25T01:02:45;12.50;;;2.67;;
68216;SDS011;55037;52.354;4.992;2023-04-25T01:05:13;11.90;;;2.55;;
68216;SDS011;55037;52.354;4.992;2023-04-25T01:07:40;12.13;;;2.05;;
68216;SDS011;55037;52.354;4.992;2023-04-25T01:10:08;15.90;;;2.70;;
68216;SDS011;55037;52.354;4.992;2023-04-25T01:12:37;13.23;;;2.42;;
68216;SDS011;55037;52.354;4.992;2023-04-25T01:15:04;10.23;;;2.28;;
68216;SDS011;55037;52.354;4.992;2023-04-25T01:17:32;13.35;;;2.45;;
68216;SDS011;55037;52.354;4.992;2023-04-25T01:20:03;11.98;;;2.50;;
68216;SDS011;55037;52.354;4.992;2023-04-25T01:22:31;9.40;;;2.50;;
68216;SDS011;55037;52.354;4.992;2023-04-25T01:24:59;12.85;;;2.72;;
68216;SDS011;55037;52.354;4.992;2023-04-25T01:27:27;12.10;;;2.70;;
68216;SDS011;55037;52.354;4.992;2023-04-25T01:29:54;20.80;;;3.08;;
68216;SDS011;55037;52.354;4.992;2023-04-25T01:32:23;12.52;;;2.65;;
68216;SDS011;55037;52.354;4.992;2023-04-25T01:34:50;13.50;;;2.70;;
68216;SDS011;55037;52.354;4.992;2023-04-25T01:37:19;19.25;;;3.33;;
68216;SDS011;55037;52.354;4.992;2023-04-25T01:39:46;14.77;;;3.50;;
68216;SDS011;55037;52.354;4.992;2023-04-25T01:42:15;18.77;;;2.60;;
68216;SDS011;55037;52.354;4.992;2023-04-25T01:44:42;21.30;;;3.28;;
68216;SDS011;55037;52.354;4.992;2023-04-25T01:47:10;12.47;;;2.93;;
68216;SDS011;55037;52.354;4.992;2023-04-25T01:49:37;9.77;;;2.22;;
68216;SDS011;55037;52.354;4.992;2023-04-25T01:52:05;10.88;;;2.67;;
68216;SDS011;55037;52.354;4.992;2023-04-25T01:54:32;16.75;;;2.70;;
68216;SDS011;55037;52.354;4.992;2023-04-25T01:56:59;20.98;;;2.60;;
68216;SDS011;55037;52.354;4.992;2023-04-25T01:59:28;11.43;;;2.30;;
68216;SDS011;55037;52.354;4.992;2023-04-25T02:02:04;23.38;;;3.20;;
68216;SDS011;55037;52.354;4.992;2023-04-25T02:04:34;7.78;;;2.30;;
68216;SDS011;55037;52.354;4.992;2023-04-25T02:07:03;15.70;;;2.70;;
68216;SDS011;55037;52.354;4.992;2023-04-25T02:09:56;7.60;;;1.70;;
68216;SDS011;55037;52.354;4.992;2023-04-25T02:12:26;13.77;;;3.03;;
68216;SDS011;55037;52.354;4.992;2023-04-25T02:15:00;19.08;;;2.20;;
68216;SDS011;55037;52.354;4.992;2023-04-25T02:17:38;13.85;;;2.63;;
68216;SDS011;55037;52.354;4.992;2023-04-25T02:20:06;12.85;;;2.75;;
68216;SDS011;55037;52.354;4.992;2023-04-25T02:22:33;8.52;;;2.13;;
68216;SDS011;55037;52.354;4.992;2023-04-25T02:25:04;10.73;;;1.90;;
68216;SDS011;55037;52.354;4.992;2023-04-25T02:27:32;6.93;;;1.90;;
68216;SDS011;55037;52.354;4.992;2023-04-25T02:29:59;9.18;;;2.10;;
68216;SDS011;55037;52.354;4.992;2023-04-25T02:32:27;9.60;;;1.88;;
68216;SDS011;55037;52.354;4.992;2023-04-25T02:34:54;13.40;;;1.90;;
68216;SDS011;55037;52.354;4.992;2023-04-25T02:37:21;11.60;;;2.30;;
68216;SDS011;55037;52.354;4.992;2023-04-25T02:39:49;7.13;;;1.52;;
68216;SDS011;55037;52.354;4.992;2023-04-25T02:42:17;12.32;;;1.80;;
68216;SDS011;55037;52.354;4.992;2023-04-25T02:44:45;5.93;;;1.38;;
68216;SDS011;55037;52.354;4.992;2023-04-25T02:47:12;11.23;;;2.22;;
68216;SDS011;55037;52.354;4.992;2023-04-25T02:49:39;12.57;;;2.43;;
68216;SDS011;55037;52.354;4.992;2023-04-25T02:52:07;10.30;;;1.80;;
68216;SDS011;55037;52.354;4.992;2023-04-25T02:54:35;6.40;;;1.42;;
68216;SDS011;55037;52.354;4.992;2023-04-25T02:57:03;3.45;;;1.52;;
68216;SDS011;55037;52.354;4.992;2023-04-25T02:59:35;10.02;;;2.20;;
68216;SDS011;55037;52.354;4.992;2023-04-25T03:02:02;7.40;;;1.77;;
68216;SDS011;55037;52.354;4.992;2023-04-25T03:04:29;6.85;;;1.92;;
68216;SDS011;55037;52.354;4.992;2023-04-25T03:06:57;5.53;;;1.60;;
68216;SDS011;55037;52.354;4.992;2023-04-25T03:09:25;9.82;;;1.70;;
68216;SDS011;55037;52.354;4.992;2023-04-25T03:11:52;6.18;;;1.85;;
68216;SDS011;55037;52.354;4.992;2023-04-25T03:14:20;8.53;;;1.83;;
68216;SDS011;55037;52.354;4.992;2023-04-25T03:16:47;4.90;;;1.35;;
68216;SDS011;55037;52.354;4.992;2023-04-25T03:19:16;7.50;;;1.58;;
68216;SDS011;55037;52.354;4.992;2023-04-25T03:21:44;7.95;;;1.77;;
68216;SDS011;55037;52.354;4.992;2023-04-25T03:24:12;11.50;;;1.95;;
68216;SDS011;55037;52.354;4.992;2023-04-25T03:26:39;7.87;;;1.97;;
68216;SDS011;55037;52.354;4.992;2023-04-25T03:29:08;6.40;;;1.58;;
68216;SDS011;55037;52.354;4.992;2023-04-25T03:31:36;7.88;;;2.42;;
68216;SDS011;55037;52.354;4.992;2023-04-25T03:34:04;8.98;;;1.60;;
68216;SDS011;55037;52.354;4.992;2023-04-25T03:36:31;9.57;;;1.55;;
68216;SDS011;55037;52.354;4.992;2023-04-25T03:38:59;9.13;;;1.50;;
68216;SDS011;55037;52.354;4.992;2023-04-25T03:41:29;9.68;;;1.50;;
68216;SDS011;55037;52.354;4.992;2023-04-25T03:44:01;10.77;;;2.03;;
68216;SDS011;55037;52.354;4.992;2023-04-25T03:46:29;10.32;;;2.08;;
68216;SDS011;55037;52.354;4.992;2023-04-25T03:48:56;13.48;;;2.00;;
68216;SDS011;55037;52.354;4.992;2023-04-25T03:51:32;5.63;;;1.80;;
68216;SDS011;55037;52.354;4.992;2023-04-25T03:54:01;9.80;;;1.98;;
68216;SDS011;55037;52.354;4.992;2023-04-25T03:56:50;9.73;;;1.65;;
68216;SDS011;55037;52.354;4.992;2023-04-25T03:59:20;9.27;;;1.90;;
68216;SDS011;55037;52.354;4.992;2023-04-25T04:01:48;7.82;;;1.75;;
68216;SDS011;55037;52.354;4.992;2023-04-25T04:04:15;6.03;;;1.60;;
68216;SDS011;55037;52.354;4.992;2023-04-25T04:06:43;10.18;;;1.92;;
68216;SDS011;55037;52.354;4.992;2023-04-25T04:09:15;8.25;;;1.50;;
68216;SDS011;55037;52.354;4.992;2023-04-25T04:11:44;6.10;;;1.95;;
68216;SDS011;55037;52.354;4.992;2023-04-25T04:14:11;5.63;;;1.55;;
68216;SDS011;55037;52.354;4.992;2023-04-25T04:16:43;9.03;;;2.20;;
68216;SDS011;55037;52.354;4.992;2023-04-25T04:19:10;8.65;;;2.42;;
68216;SDS011;55037;52.354;4.992;2023-04-25T04:21:41;7.72;;;1.60;;
68216;SDS011;55037;52.354;4.992;2023-04-25T04:24:09;4.78;;;1.60;;
68216;SDS011;55037;52.354;4.992;2023-04-25T04:26:49;7.63;;;1.40;;
68216;SDS011;55037;52.354;4.992;2023-04-25T04:29:35;9.03;;;1.83;;
68216;SDS011;55037;52.354;4.992;2023-04-25T04:32:12;15.38;;;2.30;;
68216;SDS011;55037;52.354;4.992;2023-04-25T04:34:40;6.60;;;1.40;;
68216;SDS011;55037;52.354;4.992;2023-04-25T04:37:08;10.52;;;1.75;;
68216;SDS011;55037;52.354;4.992;2023-04-25T04:39:36;9.18;;;1.80;;
68216;SDS011;55037;52.354;4.992;2023-04-25T04:42:10;10.07;;;1.83;;
68216;SDS011;55037;52.354;4.992;2023-04-25T04:44:52;11.50;;;1.55;;
68216;SDS011;55037;52.354;4.992;2023-04-25T04:47:33;7.20;;;1.40;;
68216;SDS011;55037;52.354;4.992;2023-04-25T04:50:14;7.88;;;1.67;;
68216;SDS011;55037;52.354;4.992;2023-04-25T04:53:01;6.93;;;1.73;;
68216;SDS011;55037;52.354;4.992;2023-04-25T04:55:55;5.83;;;1.40;;
68216;SDS011;55037;52.354;4.992;2023-04-25T04:58:44;6.90;;;1.50;;
68216;SDS011;55037;52.354;4.992;2023-04-25T05:01:30;6.60;;;1.63;;
68216;SDS011;55037;52.354;4.992;2023-04-25T05:04:16;6.72;;;1.80;;
68216;SDS011;55037;52.354;4.992;2023-04-25T05:07:01;12.75;;;1.95;;
68216;SDS011;55037;52.354;4.992;2023-04-25T05:09:47;8.87;;;1.80;;
68216;SDS011;55037;52.354;4.992;2023-04-25T05:12:37;13.57;;;1.88;;
68216;SDS011;55037;52.354;4.992;2023-04-25T05:15:15;5.25;;;1.73;;
68216;SDS011;55037;52.354;4.992;2023-04-25T05:17:52;7.50;;;1.83;;
68216;SDS011;55037;52.354;4.992;2023-04-25T05:20:25;7.25;;;1.83;;
68216;SDS011;55037;52.354;4.992;2023-04-25T05:23:01;10.90;;;1.80;;
68216;SDS011;55037;52.354;4.992;2023-04-25T05:25:52;11.50;;;2.20;;
68216;SDS011;55037;52.354;4.992;2023-04-25T05:28:33;9.75;;;1.70;;
68216;SDS011;55037;52.354;4.992;2023-04-25T05:31:36;9.98;;;2.30;;
68216;SDS011;55037;52.354;4.992;2023-04-25T05:34:12;10.25;;;2.25;;
68216;SDS011;55037;52.354;4.992;2023-04-25T05:36:49;10.63;;;2.30;;
68216;SDS011;55037;52.354;4.992;2023-04-25T05:39:17;11.55;;;2.60;;
68216;SDS011;55037;52.354;4.992;2023-04-25T05:42:03;9.88;;;1.90;;
68216;SDS011;55037;52.354;4.992;2023-04-25T05:44:52;12.25;;;2.47;;
68216;SDS011;55037;52.354;4.992;2023-04-25T05:47:26;10.75;;;2.17;;
68216;SDS011;55037;52.354;4.992;2023-04-25T05:50:14;13.90;;;2.03;;
68216;SDS011;55037;52.354;4.992;2023-04-25T05:52:58;9.68;;;2.17;;
68216;SDS011;55037;52.354;4.992;2023-04-25T05:55:31;8.27;;;2.15;;
68216;SDS011;55037;52.354;4.992;2023-04-25T05:58:01;12.98;;;2.25;;
68216;SDS011;55037;52.354;4.992;2023-04-25T06:00:28;7.90;;;1.70;;
68216;SDS011;55037;52.354;4.992;2023-04-25T06:02:55;10.20;;;2.07;;
68216;SDS011;55037;52.354;4.992;2023-04-25T06:05:23;8.93;;;1.98;;
68216;SDS011;55037;52.354;4.992;2023-04-25T06:07:50;11.38;;;2.13;;
68216;SDS011;55037;52.354;4.992;2023-04-25T06:10:18;8.60;;;2.00;;
68216;SDS011;55037;52.354;4.992;2023-04-25T06:12:45;8.85;;;1.83;;
68216;SDS011;55037;52.354;4.992;2023-04-25T06:15:14;11.70;;;2.80;;
68216;SDS011;55037;52.354;4.992;2023-04-25T06:17:54;9.68;;;2.20;;
68216;SDS011;55037;52.354;4.992;2023-04-25T06:20:22;10.63;;;2.13;;
68216;SDS011;55037;52.354;4.992;2023-04-25T06:22:52;9.70;;;2.42;;
68216;SDS011;55037;52.354;4.992;2023-04-25T06:25:25;9.40;;;2.08;;
68216;SDS011;55037;52.354;4.992;2023-04-25T06:27:53;14.80;;;2.20;;
68216;SDS011;55037;52.354;4.992;2023-04-25T06:30:21;5.75;;;1.33;;
68216;SDS011;55037;52.354;4.992;2023-04-25T06:32:57;8.80;;;1.90;;
68216;SDS011;55037;52.354;4.992;2023-04-25T06:35:24;7.32;;;2.08;;
68216;SDS011;55037;52.354;4.992;2023-04-25T06:37:52;9.00;;;1.75;;
68216;SDS011;55037;52.354;4.992;2023-04-25T06:40:21;14.60;;;2.37;;
68216;SDS011;55037;52.354;4.992;2023-04-25T06:42:49;11.73;;;1.80;;
68216;SDS011;55037;52.354;4.992;2023-04-25T06:45:36;10.13;;;1.80;;
68216;SDS011;55037;52.354;4.992;2023-04-25T06:48:03;13.70;;;2.25;;
68216;SDS011;55037;52.354;4.992;2023-04-25T06:50:31;11.95;;;1.83;;
68216;SDS011;55037;52.354;4.992;2023-04-25T06:52:58;8.30;;;1.50;;
68216;SDS011;55037;52.354;4.992;2023-04-25T06:55:25;12.30;;;1.65;;
68216;SDS011;55037;52.354;4.992;2023-04-25T06:58:15;8.63;;;1.80;;
68216;SDS011;55037;52.354;4.992;2023-04-25T07:00:58;11.57;;;2.00;;
68216;SDS011;55037;52.354;4.992;2023-04-25T07:03:26;10.23;;;1.75;;
68216;SDS011;55037;52.354;4.992;2023-04-25T07:06:00;9.97;;;1.70;;
68216;SDS011;55037;52.354;4.992;2023-04-25T07:08:28;7.03;;;2.05;;
68216;SDS011;55037;52.354;4.992;2023-04-25T07:10:57;8.02;;;1.45;;
68216;SDS011;55037;52.354;4.992;2023-04-25T07:13:24;10.13;;;1.80;;
68216;SDS011;55037;52.354;4.992;2023-04-25T07:15:52;9.90;;;1.70;;
68216;SDS011;55037;52.354;4.992;2023-04-25T07:18:22;9.03;;;1.50;;
68216;SDS011;55037;52.354;4.992;2023-04-25T07:20:50;11.18;;;1.60;;
68216;SDS011;55037;52.354;4.992;2023-04-25T07:23:18;12.68;;;1.70;;
68216;SDS011;55037;52.354;4.992;2023-04-25T07:25:46;13.02;;;1.65;;
68216;SDS011;55037;52.354;4.992;2023-04-25T07:28:17;9.38;;;1.67;;
68216;SDS011;55037;52.354;4.992;2023-04-25T07:30:46;9.17;;;1.97;;
68216;SDS011;55037;52.354;4.992;2023-04-25T07:33:13;9.02;;;1.83;;
68216;SDS011;55037;52.354;4.992;2023-04-25T07:35:41;7.47;;;1.45;;
68216;SDS011;55037;52.354;4.992;2023-04-25T07:38:08;9.07;;;1.88;;
68216;SDS011;55037;52.354;4.992;2023-04-25T07:40:37;8.45;;;1.50;;
68216;SDS011;55037;52.354;4.992;2023-04-25T07:43:07;11.03;;;1.80;;
68216;SDS011;55037;52.354;4.992;2023-04-25T07:45:44;11.68;;;1.77;;
68216;SDS011;55037;52.354;4.992;2023-04-25T07:48:17;11.68;;;1.75;;
68216;SDS011;55037;52.354;4.992;2023-04-25T07:50:46;9.95;;;2.10;;
68216;SDS011;55037;52.354;4.992;2023-04-25T07:53:14;7.13;;;1.60;;
68216;SDS011;55037;52.354;4.992;2023-04-25T07:55:47;3.13;;;1.07;;
68216;SDS011;55037;52.354;4.992;2023-04-25T07:58:16;4.78;;;1.23;;
68216;SDS011;55037;52.354;4.992;2023-04-25T08:00:51;3.45;;;1.15;;
68216;SDS011;55037;52.354;4.992;2023-04-25T08:03:37;7.85;;;1.00;;
68216;SDS011;55037;52.354;4.992;2023-04-25T08:06:10;5.50;;;1.10;;
68216;SDS011;55037;52.354;4.992;2023-04-25T08:08:47;6.77;;;1.40;;
68216;SDS011;55037;52.354;4.992;2023-04-25T08:11:18;11.65;;;1.08;;
68216;SDS011;55037;52.354;4.992;2023-04-25T08:13:45;9.40;;;1.48;;
68216;SDS011;55037;52.354;4.992;2023-04-25T08:16:12;6.88;;;1.05;;
68216;SDS011;55037;52.354;4.992;2023-04-25T08:18:40;9.23;;;1.30;;
68216;SDS011;55037;52.354;4.992;2023-04-25T08:21:07;4.80;;;1.20;;
68216;SDS011;55037;52.354;4.992;2023-04-25T08:23:38;5.85;;;1.17;;
68216;SDS011;55037;52.354;4.992;2023-04-25T08:26:11;11.02;;;1.20;;
68216;SDS011;55037;52.354;4.992;2023-04-25T08:28:41;6.85;;;1.30;;
68216;SDS011;55037;52.354;4.992;2023-04-25T08:31:08;5.30;;;1.25;;
68216;SDS011;55037;52.354;4.992;2023-04-25T08:33:47;7.30;;;1.27;;
68216;SDS011;55037;52.354;4.992;2023-04-25T08:36:34;5.88;;;1.05;;
68216;SDS011;55037;52.354;4.992;2023-04-25T08:39:27;8.02;;;1.65;;
68216;SDS011;55037;52.354;4.992;2023-04-25T08:42:15;7.38;;;1.27;;
68216;SDS011;55037;52.354;4.992;2023-04-25T08:44:43;7.18;;;1.30;;
68216;SDS011;55037;52.354;4.992;2023-04-25T08:47:15;8.03;;;1.30;;
68216;SDS011;55037;52.354;4.992;2023-04-25T08:49:50;4.18;;;1.02;;
68216;SDS011;55037;52.354;4.992;2023-04-25T08:52:22;6.22;;;1.52;;
68216;SDS011;55037;52.354;4.992;2023-04-25T08:54:52;6.95;;;1.60;;
68216;SDS011;55037;52.354;4.992;2023-04-25T08:57:21;5.28;;;1.50;;
68216;SDS011;55037;52.354;4.992;2023-04-25T08:59:51;8.43;;;1.60;;
68216;SDS011;55037;52.354;4.992;2023-04-25T09:02:20;5.05;;;1.50;;
68216;SDS011;55037;52.354;4.992;2023-04-25T09:04:50;4.80;;;1.50;;
68216;SDS011;55037;52.354;4.992;2023-04-25T09:07:18;5.90;;;1.23;;
68216;SDS011;55037;52.354;4.992;2023-04-25T09:09:48;7.57;;;1.65;;
68216;SDS011;55037;52.354;4.992;2023-04-25T09:12:18;11.00;;;1.57;;
68216;SDS011;55037;52.354;4.992;2023-04-25T09:15:03;5.88;;;1.30;;
68216;SDS011;55037;52.354;4.992;2023-04-25T09:17:56;7.18;;;1.60;;
68216;SDS011;55037;52.354;4.992;2023-04-25T09:20:33;9.65;;;1.83;;
68216;SDS011;55037;52.354;4.992;2023-04-25T09:23:27;11.25;;;1.50;;
68216;SDS011;55037;52.354;4.992;2023-04-25T09:25:55;6.70;;;1.45;;
68216;SDS011;55037;52.354;4.992;2023-04-25T09:28:23;6.25;;;1.40;;
68216;SDS011;55037;52.354;4.992;2023-04-25T09:30:58;8.10;;;1.60;;
68216;SDS011;55037;52.354;4.992;2023-04-25T09:33:34;5.65;;;1.42;;
68216;SDS011;55037;52.354;4.992;2023-04-25T09:36:06;6.03;;;1.60;;
68216;SDS011;55037;52.354;4.992;2023-04-25T09:38:54;5.22;;;1.27;;
68216;SDS011;55037;52.354;4.992;2023-04-25T09:41:31;12.52;;;2.13;;
68216;SDS011;55037;52.354;4.992;2023-04-25T09:44:01;7.47;;;1.83;;
68216;SDS011;55037;52.354;4.992;2023-04-25T09:46:35;6.35;;;1.85;;
68216;SDS011;55037;52.354;4.992;2023-04-25T09:49:06;6.47;;;1.90;;
68216;SDS011;55037;52.354;4.992;2023-04-25T09:51:55;5.03;;;1.95;;
68216;SDS011;55037;52.354;4.992;2023-04-25T09:54:33;8.15;;;2.22;;
68216;SDS011;55037;52.354;4.992;2023-04-25T09:57:19;5.22;;;1.75;;
68216;SDS011;55037;52.354;4.992;2023-04-25T09:59:54;4.88;;;1.42;;
68216;SDS011;55037;52.354;4.992;2023-04-25T10:02:24;7.95;;;1.83;;
68216;SDS011;55037;52.354;4.992;2023-04-25T10:04:56;5.95;;;1.95;;
68216;SDS011;55037;52.354;4.992;2023-04-25T10:07:29;5.35;;;1.63;;
68216;SDS011;55037;52.354;4.992;2023-04-25T10:10:01;5.43;;;1.80;;
68216;SDS011;55037;52.354;4.992;2023-04-25T10:12:31;7.30;;;1.67;;
68216;SDS011;55037;52.354;4.992;2023-04-25T10:14:59;4.88;;;1.35;;
68216;SDS011;55037;52.354;4.992;2023-04-25T10:17:28;5.43;;;1.63;;
68216;SDS011;55037;52.354;4.992;2023-04-25T10:19:56;6.07;;;1.73;;
68216;SDS011;55037;52.354;4.992;2023-04-25T10:25:23;5.63;;;1.75;;
68216;SDS011;55037;52.354;4.992;2023-04-25T10:27:51;4.07;;;1.42;;
68216;SDS011;55037;52.354;4.992;2023-04-25T10:30:19;6.80;;;1.50;;
68216;SDS011;55037;52.354;4.992;2023-04-25T10:32:46;4.53;;;1.20;;
68216;SDS011;55037;52.354;4.992;2023-04-25T10:35:22;3.85;;;1.17;;
68216;SDS011;55037;52.354;4.992;2023-04-25T10:37:58;5.60;;;1.20;;
68216;SDS011;55037;52.354;4.992;2023-04-25T10:40:40;5.47;;;1.50;;
68216;SDS011;55037;52.354;4.992;2023-04-25T10:45:59;4.50;;;1.83;;
68216;SDS011;55037;52.354;4.992;2023-04-25T10:48:28;5.75;;;2.05;;
68216;SDS011;55037;52.354;4.992;2023-04-25T10:51:09;8.75;;;2.15;;
68216;SDS011;55037;52.354;4.992;2023-04-25T10:53:37;8.77;;;1.90;;
68216;SDS011;55037;52.354;4.992;2023-04-25T10:58:45;9.15;;;2.00;;
68216;SDS011;55037;52.354;4.992;2023-04-25T11:01:19;5.72;;;1.40;;
68216;SDS011;55037;52.354;4.992;2023-04-25T11:03:48;10.05;;;1.60;;
68216;SDS011;55037;52.354;4.992;2023-04-25T11:06:22;6.70;;;1.70;;
68216;SDS011;55037;52.354;4.992;2023-04-25T11:08:55;8.75;;;2.00;;
68216;SDS011;55037;52.354;4.992;2023-04-25T11:11:22;5.68;;;1.33;;
68216;SDS011;55037;52.354;4.992;2023-04-25T11:13:50;5.63;;;1.88;;
68216;SDS011;55037;52.354;4.992;2023-04-25T11:16:17;6.65;;;1.65;;
68216;SDS011;55037;52.354;4.992;2023-04-25T11:18:56;10.05;;;1.75;;
68216;SDS011;55037;52.354;4.992;2023-04-25T11:21:27;6.33;;;1.67;;
68216;SDS011;55037;52.354;4.992;2023-04-25T11:23:56;7.13;;;2.13;;
68216;SDS011;55037;52.354;4.992;2023-04-25T11:26:24;4.75;;;1.70;;
68216;SDS011;55037;52.354;4.992;2023-04-25T11:28:56;5.00;;;1.30;;
68216;SDS011;55037;52.354;4.992;2023-04-25T11:31:25;5.30;;;1.50;;
68216;SDS011;55037;52.354;4.992;2023-04-25T11:33:53;5.00;;;1.70;;
68216;SDS011;55037;52.354;4.992;2023-04-25T11:36:22;5.07;;;2.00;;
68216;SDS011;55037;52.354;4.992;2023-04-25T11:38:50;6.75;;;1.60;;
68216;SDS011;55037;52.354;4.992;2023-04-25T11:41:18;4.35;;;1.70;;
68216;SDS011;55037;52.354;4.992;2023-04-25T11:43:46;5.22;;;1.67;;
68216;SDS011;55037;52.354;4.992;2023-04-25T11:46:15;5.28;;;2.00;;
68216;SDS011;55037;52.354;4.992;2023-04-25T11:48:42;7.95;;;1.73;;
68216;SDS011;55037;52.354;4.992;2023-04-25T11:51:11;6.15;;;2.00;;
68216;SDS011;55037;52.354;4.992;2023-04-25T11:53:40;7.18;;;2.10;;
68216;SDS011;55037;52.354;4.992;2023-04-25T11:56:09;5.53;;;1.77;;
68216;SDS011;55037;52.354;4.992;2023-04-25T11:58:59;6.80;;;2.00;;
68216;SDS011;55037;52.354;4.992;2023-04-25T12:01:29;7.38;;;2.00;;
68216;SDS011;55037;52.354;4.992;2023-04-25T12:04:10;6.32;;;1.80;;
68216;SDS011;55037;52.354;4.992;2023-04-25T12:06:46;5.63;;;1.67;;
68216;SDS011;55037;52.354;4.992;2023-04-25T12:09:16;5.78;;;1.63;;
68216;SDS011;55037;52.354;4.992;2023-04-25T12:11:46;6.68;;;1.98;;
68216;SDS011;55037;52.354;4.992;2023-04-25T12:14:27;4.38;;;1.85;;
68216;SDS011;55037;52.354;4.992;2023-04-25T12:16:57;5.40;;;1.75;;
68216;SDS011;55037;52.354;4.992;2023-04-25T12:19:26;8.27;;;1.50;;
68216;SDS011;55037;52.354;4.992;2023-04-25T12:22:00;4.30;;;1.60;;
68216;SDS011;55037;52.354;4.992;2023-04-25T12:24:32;4.85;;;1.48;;
68216;SDS011;55037;52.354;4.992;2023-04-25T12:27:07;6.35;;;1.85;;
68216;SDS011;55037;52.354;4.992;2023-04-25T12:29:37;8.32;;;1.95;;
68216;SDS011;55037;52.354;4.992;2023-04-25T12:32:15;6.45;;;1.83;;
68216;SDS011;55037;52.354;4.992;2023-04-25T12:34:43;4.20;;;1.48;;
68216;SDS011;55037;52.354;4.992;2023-04-25T12:37:11;5.32;;;1.95;;
68216;SDS011;55037;52.354;4.992;2023-04-25T12:39:39;4.65;;;1.48;;
68216;SDS011;55037;52.354;4.992;2023-04-25T12:42:06;5.75;;;2.45;;
68216;SDS011;55037;52.354;4.992;2023-04-25T12:44:35;6.25;;;1.90;;
68216;SDS011;55037;52.354;4.992;2023-04-25T12:47:03;6.60;;;1.75;;
68216;SDS011;55037;52.354;4.992;2023-04-25T12:49:31;5.25;;;1.70;;
68216;SDS011;55037;52.354;4.992;2023-04-25T12:51:58;6.60;;;1.65;;
68216;SDS011;55037;52.354;4.992;2023-04-25T12:54:25;6.70;;;1.80;;
68216;SDS011;55037;52.354;4.992;2023-04-25T12:56:53;8.45;;;1.90;;
68216;SDS011;55037;52.354;4.992;2023-04-25T12:59:21;8.48;;;1.70;;
68216;SDS011;55037;52.354;4.992;2023-04-25T13:01:49;5.38;;;1.83;;
68216;SDS011;55037;52.354;4.992;2023-04-25T13:04:16;5.45;;;1.52;;
68216;SDS011;55037;52.354;4.992;2023-04-25T13:06:44;6.15;;;1.80;;
68216;SDS011;55037;52.354;4.992;2023-04-25T13:09:11;10.55;;;2.20;;
68216;SDS011;55037;52.354;4.992;2023-04-25T13:11:39;6.82;;;1.65;;
68216;SDS011;55037;52.354;4.992;2023-04-25T13:14:08;8.18;;;1.90;;
68216;SDS011;55037;52.354;4.992;2023-04-25T13:16:35;7.47;;;2.35;;
68216;SDS011;55037;52.354;4.992;2023-04-25T13:19:03;6.85;;;1.90;;
68216;SDS011;55037;52.354;4.992;2023-04-25T13:21:30;7.68;;;2.53;;
68216;SDS011;55037;52.354;4.992;2023-04-25T13:24:00;10.10;;;1.95;;
68216;SDS011;55037;52.354;4.992;2023-04-25T13:26:28;6.32;;;1.88;;
68216;SDS011;55037;52.354;4.992;2023-04-25T13:28:56;6.78;;;1.80;;
68216;SDS011;55037;52.354;4.992;2023-04-25T13:31:23;6.22;;;1.98;;
68216;SDS011;55037;52.354;4.992;2023-04-25T13:33:51;7.30;;;1.77;;
68216;SDS011;55037;52.354;4.992;2023-04-25T13:36:19;8.73;;;2.15;;
68216;SDS011;55037;52.354;4.992;2023-04-25T13:38:46;5.60;;;1.65;;
68216;SDS011;55037;52.354;4.992;2023-04-25T13:41:16;7.00;;;1.80;;
68216;SDS011;55037;52.354;4.992;2023-04-25T13:43:46;5.38;;;1.75;;
68216;SDS011;55037;52.354;4.992;2023-04-25T13:46:14;6.82;;;1.58;;
68216;SDS011;55037;52.354;4.992;2023-04-25T13:49:03;9.68;;;1.90;;
68216;SDS011;55037;52.354;4.992;2023-04-25T13:51:39;4.35;;;1.63;;
68216;SDS011;55037;52.354;4.992;2023-04-25T13:54:07;5.13;;;1.75;;
68216;SDS011;55037;52.354;4.992;2023-04-25T13:56:34;7.38;;;1.90;;
68216;SDS011;55037;52.354;4.992;2023-04-25T13:59:01;6.85;;;1.98;;
68216;SDS011;55037;52.354;4.992;2023-04-25T14:01:29;4.07;;;1.58;;
68216;SDS011;55037;52.354;4.992;2023-04-25T14:04:01;5.63;;;1.45;;
68216;SDS011;55037;52.354;4.992;2023-04-25T14:06:31;3.30;;;1.48;;
68216;SDS011;55037;52.354;4.992;2023-04-25T14:08:59;6.30;;;1.63;;
68216;SDS011;55037;52.354;4.992;2023-04-25T14:11:31;5.82;;;1.77;;
68216;SDS011;55037;52.354;4.992;2023-04-25T14:13:58;7.47;;;1.63;;
68216;SDS011;55037;52.354;4.992;2023-04-25T14:16:25;6.10;;;1.85;;
68216;SDS011;55037;52.354;4.992;2023-04-25T14:18:53;4.30;;;1.73;;
68216;SDS011;55037;52.354;4.992;2023-04-25T14:21:21;7.28;;;1.70;;
68216;SDS011;55037;52.354;4.992;2023-04-25T14:23:48;5.97;;;1.30;;
68216;SDS011;55037;52.354;4.992;2023-04-25T14:26:16;3.60;;;1.60;;
68216;SDS011;55037;52.354;4.992;2023-04-25T14:28:43;4.80;;;1.33;;
68216;SDS011;55037;52.354;4.992;2023-04-25T14:31:10;5.47;;;1.38;;
68216;SDS011;55037;52.354;4.992;2023-04-25T14:33:38;4.15;;;0.95;;
68216;SDS011;55037;52.354;4.992;2023-04-25T14:36:08;4.93;;;1.00;;
68216;SDS011;55037;52.354;4.992;2023-04-25T14:38:36;5.70;;;1.25;;
68216;SDS011;55037;52.354;4.992;2023-04-25T14:41:03;6.60;;;1.33;;
68216;SDS011;55037;52.354;4.992;2023-04-25T14:43:30;7.43;;;1.30;;
68216;SDS011;55037;52.354;4.992;2023-04-25T14:45:57;2.95;;;1.40;;
68216;SDS011;55037;52.354;4.992;2023-04-25T14:48:25;8.20;;;1.65;;
68216;SDS011;55037;52.354;4.992;2023-04-25T14:50:52;6.22;;;1.85;;
68216;SDS011;55037;52.354;4.992;2023-04-25T14:53:20;5.20;;;1.55;;
68216;SDS011;55037;52.354;4.992;2023-04-25T14:55:47;7.07;;;1.58;;
68216;SDS011;55037;52.354;4.992;2023-04-25T14:58:15;5.97;;;1.83;;
68216;SDS011;55037;52.354;4.992;2023-04-25T15:00:42;8.82;;;1.75;;
68216;SDS011;55037;52.354;4.992;2023-04-25T15:03:10;7.45;;;1.88;;
68216;SDS011;55037;52.354;4.992;2023-04-25T15:05:39;5.80;;;1.80;;
68216;SDS011;55037;52.354;4.992;2023-04-25T15:08:07;7.25;;;1.50;;
68216;SDS011;55037;52.354;4.992;2023-04-25T15:10:35;7.55;;;1.67;;
68216;SDS011;55037;52.354;4.992;2023-04-25T15:13:03;5.72;;;1.70;;
68216;SDS011;55037;52.354;4.992;2023-04-25T15:15:30;8.27;;;1.95;;